createdAt,value
2023-05-11T00:00:27.695Z,9.15
2023-05-11T00:01:30.772Z,9.23
2023-05-11T00:02:34.139Z,9.20
2023-05-11T00:03:37.761Z,9.26
2023-05-11T00:04:42.741Z,9.27
2023-05-11T00:05:49.073Z,9.34
2023-05-11T00:06:52.814Z,9.31
2023-05-11T00:07:56.527Z,9.32
2023-05-11T00:09:00.017Z,9.31
2023-05-11T00:10:03.852Z,9.32
2023-05-11T00:11:10.863Z,9.30
2023-05-11T00:12:14.923Z,9.25
2023-05-11T00:13:18.223Z,9.22
2023-05-11T00:14:21.833Z,9.15
2023-05-11T00:15:24.538Z,9.15
2023-05-11T00:16:28.878Z,9.20
2023-05-11T00:17:32.238Z,9.17
2023-05-11T00:18:35.703Z,9.16
2023-05-11T00:19:40.440Z,9.12
2023-05-11T00:20:47.239Z,9.10
2023-05-11T00:21:49.503Z,9.16
2023-05-11T00:22:52.785Z,9.16
2023-05-11T00:23:56.305Z,9.15
2023-05-11T00:25:01.162Z,9.13
2023-05-11T00:26:04.663Z,9.05
2023-05-11T00:27:07.641Z,9.07
2023-05-11T00:28:10.766Z,9.04
2023-05-11T00:29:14.242Z,9.06
2023-05-11T00:30:20.589Z,9.03
2023-05-11T00:31:24.394Z,9.06
2023-05-11T00:32:28.039Z,9.04
2023-05-11T00:33:33.854Z,9.06
2023-05-11T00:34:37.302Z,9.08
2023-05-11T00:35:39.971Z,9.07
2023-05-11T00:36:43.560Z,9.09
2023-05-11T00:37:47.085Z,9.03
2023-05-11T00:38:50.699Z,9.04
2023-05-11T00:39:53.145Z,9.04
2023-05-11T00:40:56.369Z,9.03
2023-05-11T00:42:00.363Z,9.00
2023-05-11T00:43:04.087Z,8.97
2023-05-11T00:44:08.114Z,8.96
2023-05-11T00:45:12.034Z,8.95
2023-05-11T00:46:16.029Z,8.93
2023-05-11T00:47:18.410Z,8.82
2023-05-11T00:48:23.956Z,8.81
2023-05-11T00:49:28.551Z,8.80
2023-05-11T00:50:33.309Z,8.81
2023-05-11T00:51:36.844Z,8.78
2023-05-11T00:52:41.897Z,8.79
2023-05-11T00:53:45.184Z,8.79
2023-05-11T00:54:48.382Z,8.79
2023-05-11T00:55:51.793Z,8.75
2023-05-11T00:56:58.638Z,8.76
2023-05-11T00:58:04.631Z,8.77
2023-05-11T00:59:08.753Z,8.73
2023-05-11T01:00:13.010Z,8.70
2023-05-11T01:01:17.699Z,8.69
2023-05-11T01:02:21.848Z,8.68
2023-05-11T01:03:27.312Z,8.66
2023-05-11T01:04:31.629Z,8.71
2023-05-11T01:05:35.752Z,8.71
2023-05-11T01:06:46.588Z,8.68
2023-05-11T01:07:54.430Z,8.65
2023-05-11T01:08:59.857Z,8.68
2023-05-11T01:10:20.578Z,8.63
2023-05-11T01:11:32.994Z,8.63
2023-05-11T01:12:50.461Z,8.63
2023-05-11T01:13:55.190Z,8.63
2023-05-11T01:15:05.745Z,8.64
2023-05-11T01:16:12.698Z,8.67
2023-05-11T01:17:17.334Z,8.68
2023-05-11T01:18:22.666Z,8.62
2023-05-11T01:19:33.328Z,8.50
2023-05-11T01:20:35.707Z,8.37
2023-05-11T01:21:39.293Z,8.45
2023-05-11T01:22:47.824Z,8.43
2023-05-11T01:23:59.160Z,8.31
2023-05-11T01:25:03.920Z,8.32
2023-05-11T01:26:24.549Z,8.33
2023-05-11T01:27:39.435Z,8.32
2023-05-11T01:28:43.689Z,8.37
2023-05-11T01:29:53.251Z,8.39
2023-05-11T01:30:58.546Z,8.44
2023-05-11T01:32:03.821Z,8.42
2023-05-11T01:33:09.222Z,8.38
2023-05-11T01:34:13.730Z,8.35
2023-05-11T01:35:20.595Z,8.42
2023-05-11T01:36:25.677Z,8.45
2023-05-11T01:37:29.990Z,8.45
2023-05-11T01:38:34.952Z,8.38
2023-05-11T01:39:39.352Z,8.42
2023-05-11T01:40:45.525Z,8.37
2023-05-11T01:41:50.805Z,8.35
2023-05-11T01:42:58.209Z,8.32
2023-05-11T01:44:03.981Z,8.25
2023-05-11T01:45:08.733Z,8.27
2023-05-11T01:46:13.540Z,8.29
2023-05-11T01:47:16.750Z,8.25
2023-05-11T01:48:23.745Z,8.26
2023-05-11T01:49:28.379Z,8.27
2023-05-11T01:50:32.004Z,8.28
2023-05-11T01:51:36.969Z,8.29
2023-05-11T01:52:44.659Z,8.26
2023-05-11T01:53:48.899Z,8.31
2023-05-11T01:54:54.270Z,8.28
2023-05-11T01:55:57.154Z,8.29
2023-05-11T01:57:01.081Z,8.32
2023-05-11T01:58:05.199Z,8.31
2023-05-11T01:59:09.859Z,8.35
2023-05-11T02:00:16.206Z,8.35
2023-05-11T02:01:21.731Z,8.30
2023-05-11T02:02:27.155Z,8.28
2023-05-11T02:03:33.372Z,8.20
2023-05-11T02:04:37.319Z,7.98
2023-05-11T02:05:43.737Z,7.89
2023-05-11T02:06:49.021Z,7.92
2023-05-11T02:07:56.283Z,7.90
2023-05-11T02:09:01.814Z,8.04
2023-05-11T02:10:05.598Z,8.09
2023-05-11T02:11:10.138Z,8.11
2023-05-11T02:12:18.106Z,8.12
2023-05-11T02:13:23.007Z,8.10
2023-05-11T02:14:30.621Z,8.07
2023-05-11T02:15:35.040Z,8.02
2023-05-11T02:16:39.674Z,7.99
2023-05-11T02:17:44.387Z,7.93
2023-05-11T02:18:48.829Z,7.87
2023-05-11T02:19:52.282Z,7.86
2023-05-11T02:20:56.707Z,7.89
2023-05-11T02:22:01.634Z,7.92
2023-05-11T02:23:05.405Z,7.95
2023-05-11T02:24:10.042Z,7.91
2023-05-11T02:25:13.138Z,7.99
2023-05-11T02:26:17.378Z,8.03
2023-05-11T02:27:20.775Z,8.07
2023-05-11T02:28:24.191Z,8.04
2023-05-11T02:29:28.328Z,8.08
2023-05-11T02:30:34.633Z,8.17
2023-05-11T02:31:39.352Z,8.16
2023-05-11T02:32:46.073Z,8.16
2023-05-11T02:33:52.602Z,8.12
2023-05-11T02:35:01.508Z,8.10
2023-05-11T02:36:07.971Z,8.17
2023-05-11T02:37:17.097Z,8.27
2023-05-11T02:38:21.783Z,8.28
2023-05-11T02:39:26.935Z,8.16
2023-05-11T02:40:34.095Z,8.13
2023-05-11T02:41:39.342Z,8.05
2023-05-11T02:42:43.486Z,8.02
2023-05-11T02:43:48.661Z,8.13
2023-05-11T02:44:57.807Z,8.28
2023-05-11T02:46:01.921Z,8.33
2023-05-11T02:47:07.567Z,8.35
2023-05-11T02:48:17.513Z,8.44
2023-05-11T02:49:22.898Z,8.46
2023-05-11T02:50:27.960Z,8.52
2023-05-11T02:51:36.358Z,8.49
2023-05-11T02:52:43.323Z,8.59
2023-05-11T02:53:47.880Z,8.65
2023-05-11T02:54:53.000Z,8.70
2023-05-11T02:55:57.182Z,8.63
2023-05-11T02:57:02.597Z,8.68
2023-05-11T02:58:09.110Z,8.80
2023-05-11T02:59:14.498Z,8.91
2023-05-11T03:00:19.406Z,8.96
2023-05-11T03:01:25.291Z,8.94
2023-05-11T03:02:31.129Z,9.06
2023-05-11T03:03:39.068Z,9.07
2023-05-11T03:04:44.555Z,9.21
2023-05-11T03:05:48.577Z,9.25
2023-05-11T03:06:53.966Z,9.18
2023-05-11T03:08:00.299Z,9.07
2023-05-11T03:09:03.697Z,9.04
2023-05-11T03:10:09.326Z,9.02
2023-05-11T03:11:17.386Z,9.04
2023-05-11T03:12:22.553Z,9.10
2023-05-11T03:13:25.862Z,9.18
2023-05-11T03:14:31.756Z,9.26
2023-05-11T03:15:36.297Z,9.30
2023-05-11T03:16:39.164Z,9.39
2023-05-11T03:17:45.130Z,9.37
2023-05-11T03:18:50.790Z,9.33
2023-05-11T03:19:55.655Z,9.30
2023-05-11T03:21:00.533Z,9.32
2023-05-11T03:22:08.318Z,9.30
2023-05-11T03:23:14.528Z,9.32
2023-05-11T03:24:19.364Z,9.25
2023-05-11T03:25:25.540Z,9.26
2023-05-11T03:26:30.787Z,9.21
2023-05-11T03:27:35.557Z,9.17
2023-05-11T03:28:39.573Z,9.20
2023-05-11T03:29:46.989Z,9.34
2023-05-11T03:30:52.537Z,9.42
2023-05-11T03:31:57.113Z,9.41
2023-05-11T03:33:01.677Z,9.46
2023-05-11T03:34:05.783Z,9.57
2023-05-11T03:35:11.683Z,9.58
2023-05-11T03:36:16.340Z,9.57
2023-05-11T03:37:25.199Z,9.59
2023-05-11T03:38:30.228Z,9.67
2023-05-11T03:39:35.612Z,9.71
2023-05-11T03:40:40.794Z,9.80
2023-05-11T03:41:46.021Z,9.93
2023-05-11T03:42:53.035Z,9.99
2023-05-11T03:43:57.578Z,10.04
2023-05-11T03:45:01.312Z,10.08
2023-05-11T03:46:07.947Z,10.06
2023-05-11T03:47:12.265Z,10.08
2023-05-11T03:48:17.855Z,10.19
2023-05-11T03:49:21.800Z,10.19
2023-05-11T03:50:28.064Z,10.26
2023-05-11T03:51:32.543Z,10.29
2023-05-11T03:52:36.702Z,10.27
2023-05-11T03:53:40.034Z,10.37
2023-05-11T03:54:45.049Z,10.39
2023-05-11T03:55:56.032Z,10.53
2023-05-11T03:57:00.273Z,10.60
2023-05-11T03:58:05.604Z,10.74
2023-05-11T03:59:10.099Z,10.81
2023-05-11T04:00:14.066Z,10.91
2023-05-11T04:01:20.981Z,11.12
2023-05-11T04:02:27.224Z,11.30
2023-05-11T04:03:32.965Z,11.25
2023-05-11T04:04:38.611Z,11.37
2023-05-11T04:05:44.311Z,11.45
2023-05-11T04:06:48.993Z,11.68
2023-05-11T04:07:53.537Z,11.87
2023-05-11T04:08:56.939Z,12.03
2023-05-11T04:10:02.425Z,12.16
2023-05-11T04:11:06.539Z,12.12
2023-05-11T04:12:11.659Z,11.97
2023-05-11T04:13:15.661Z,12.06
2023-05-11T04:14:19.264Z,11.91
2023-05-11T04:15:22.468Z,12.13
2023-05-11T04:16:26.952Z,12.14
2023-05-11T04:17:34.212Z,12.30
2023-05-11T04:18:38.793Z,12.47
2023-05-11T04:19:42.444Z,12.45
2023-05-11T04:20:45.942Z,12.36
2023-05-11T04:21:52.563Z,12.36
2023-05-11T04:22:58.072Z,12.29
2023-05-11T04:24:01.573Z,12.17
2023-05-11T04:25:08.710Z,12.18
2023-05-11T04:26:11.710Z,12.18
2023-05-11T04:27:18.126Z,12.07
2023-05-11T04:28:26.678Z,12.22
2023-05-11T04:29:30.149Z,12.20
2023-05-11T04:30:32.525Z,12.28
2023-05-11T04:31:35.882Z,12.35
2023-05-11T04:32:41.148Z,12.51
2023-05-11T04:33:45.911Z,12.44
2023-05-11T04:34:50.100Z,12.59
2023-05-11T04:35:55.711Z,12.64
2023-05-11T04:37:02.740Z,12.62
2023-05-11T04:38:07.923Z,12.59
2023-05-11T04:39:12.051Z,12.86
2023-05-11T04:40:17.998Z,12.84
2023-05-11T04:41:23.248Z,12.74
2023-05-11T04:42:26.133Z,12.46
2023-05-11T04:43:31.289Z,12.32
2023-05-11T04:44:35.003Z,12.30
2023-05-11T04:45:37.793Z,12.48
2023-05-11T04:46:40.301Z,12.44
2023-05-11T04:47:43.183Z,12.52
2023-05-11T04:48:47.779Z,12.55
2023-05-11T04:49:52.639Z,12.79
2023-05-11T04:50:58.591Z,13.01
2023-05-11T04:52:02.632Z,13.19
2023-05-11T04:53:06.186Z,13.23
2023-05-11T04:54:12.134Z,13.27
2023-05-11T04:55:15.916Z,13.32
2023-05-11T04:56:20.662Z,13.34
2023-05-11T04:57:25.105Z,13.54
2023-05-11T04:58:28.675Z,13.61
2023-05-11T04:59:31.305Z,13.62
2023-05-11T05:00:34.168Z,13.81
2023-05-11T05:01:38.612Z,13.85
2023-05-11T05:02:40.980Z,13.81
2023-05-11T05:03:44.516Z,14.00
2023-05-11T05:04:49.955Z,14.08
2023-05-11T05:05:54.628Z,13.95
2023-05-11T05:06:58.011Z,14.30
2023-05-11T05:08:01.853Z,14.81
2023-05-11T05:09:07.222Z,14.77
2023-05-11T05:10:15.955Z,14.71
2023-05-11T05:11:19.662Z,14.69
2023-05-11T05:12:23.301Z,14.89
2023-05-11T05:13:28.974Z,15.10
2023-05-11T05:14:32.587Z,15.14
2023-05-11T05:15:34.931Z,15.46
2023-05-11T05:16:38.378Z,15.46
2023-05-11T05:17:41.147Z,15.46
2023-05-11T05:18:45.007Z,15.63
2023-05-11T05:19:48.015Z,15.89
2023-05-11T05:20:51.419Z,15.92
2023-05-11T05:21:54.965Z,16.37
2023-05-11T05:23:02.865Z,16.12
2023-05-11T05:24:07.349Z,16.09
2023-05-11T05:25:12.048Z,16.07
2023-05-11T05:26:16.683Z,15.92
2023-05-11T05:27:21.857Z,16.22
2023-05-11T05:28:28.384Z,16.20
2023-05-11T05:29:31.623Z,16.42
2023-05-11T05:30:36.644Z,16.73
2023-05-11T05:31:40.680Z,17.35
2023-05-11T05:32:44.573Z,18.65
2023-05-11T05:33:47.998Z,19.36
2023-05-11T05:34:52.025Z,19.64
2023-05-11T05:35:58.967Z,19.04
2023-05-11T05:37:04.159Z,19.91
2023-05-11T05:38:08.064Z,20.23
2023-05-11T05:39:13.480Z,20.32
2023-05-11T05:40:17.717Z,21.08
2023-05-11T05:41:23.704Z,20.42
2023-05-11T05:42:26.899Z,20.52
2023-05-11T05:43:31.439Z,20.54
2023-05-11T05:44:34.855Z,22.18
2023-05-11T05:45:38.658Z,24.23
2023-05-11T05:46:42.479Z,25.58
2023-05-11T05:47:47.628Z,26.22
2023-05-11T05:48:52.725Z,26.26
2023-05-11T05:49:57.068Z,25.51
2023-05-11T05:51:00.966Z,24.63
2023-05-11T05:52:06.845Z,24.17
2023-05-11T05:53:10.415Z,23.19
2023-05-11T05:54:15.058Z,23.01
2023-05-11T05:55:18.566Z,24.34
2023-05-11T05:56:22.613Z,25.48
2023-05-11T05:57:26.021Z,27.11
2023-05-11T05:58:30.442Z,27.50
2023-05-11T05:59:33.957Z,27.93
2023-05-11T06:00:37.697Z,27.62
2023-05-11T06:01:47.553Z,27.72
2023-05-11T06:02:51.605Z,27.68
2023-05-11T06:04:00.981Z,27.03
2023-05-11T06:05:05.100Z,25.30
2023-05-11T06:06:09.576Z,24.69
2023-05-11T06:07:17.829Z,24.50
2023-05-11T06:08:23.534Z,24.95
2023-05-11T06:09:28.151Z,26.20
2023-05-11T06:10:31.760Z,25.71
2023-05-11T06:11:35.395Z,25.52
2023-05-11T06:12:38.763Z,24.58
2023-05-11T06:13:44.408Z,23.60
2023-05-11T06:14:49.852Z,23.53
2023-05-11T06:15:54.118Z,24.68
2023-05-11T06:16:59.239Z,25.81
2023-05-11T06:18:04.468Z,27.00
2023-05-11T06:19:09.754Z,26.86
2023-05-11T06:20:15.949Z,26.82
2023-05-11T06:21:19.452Z,26.73
2023-05-11T06:22:23.055Z,27.22
2023-05-11T06:23:26.248Z,27.78
2023-05-11T06:24:29.866Z,28.45
2023-05-11T06:25:36.282Z,28.86
2023-05-11T06:26:39.262Z,29.88
2023-05-11T06:27:42.967Z,29.61
2023-05-11T06:28:46.896Z,30.02
2023-05-11T06:29:51.166Z,30.38
2023-05-11T06:30:56.529Z,30.76
2023-05-11T06:32:00.012Z,30.77
2023-05-11T06:33:06.649Z,30.67
2023-05-11T06:34:10.274Z,30.31
2023-05-11T06:35:15.150Z,30.28
2023-05-11T06:36:20.106Z,30.22
2023-05-11T06:37:25.175Z,30.71
2023-05-11T06:38:29.674Z,30.33
2023-05-11T06:39:36.108Z,30.99
2023-05-11T06:40:39.564Z,30.83
2023-05-11T06:41:42.907Z,31.09
2023-05-11T06:42:46.686Z,30.27
2023-05-11T06:43:51.106Z,29.93
2023-05-11T06:44:59.142Z,29.06
2023-05-11T06:46:05.173Z,28.62
2023-05-11T06:47:10.923Z,29.09
2023-05-11T06:48:14.385Z,29.25
2023-05-11T06:49:17.675Z,30.34
2023-05-11T06:50:21.846Z,29.62
2023-05-11T06:51:26.136Z,30.34
2023-05-11T06:52:29.920Z,31.39
2023-05-11T06:53:33.530Z,32.13
2023-05-11T06:54:35.876Z,31.76
2023-05-11T06:55:39.601Z,31.65
2023-05-11T06:56:41.956Z,31.80
2023-05-11T06:57:47.251Z,31.05
2023-05-11T06:58:50.627Z,29.62
2023-05-11T06:59:53.929Z,28.42
2023-05-11T07:00:58.309Z,27.58
2023-05-11T07:02:03.030Z,26.68
2023-05-11T07:03:07.733Z,25.49
2023-05-11T07:04:12.390Z,24.09
2023-05-11T07:05:16.044Z,26.50
2023-05-11T07:06:19.664Z,27.52
2023-05-11T07:07:25.880Z,28.64
2023-05-11T07:08:29.451Z,28.10
2023-05-11T07:09:32.832Z,27.19
2023-05-11T07:10:36.587Z,25.97
2023-05-11T07:11:39.994Z,25.95
2023-05-11T07:12:43.411Z,27.46
2023-05-11T07:13:47.099Z,27.95
2023-05-11T07:14:51.367Z,29.02
2023-05-11T07:15:57.357Z,28.99
2023-05-11T07:17:00.847Z,27.62
2023-05-11T07:18:05.373Z,26.29
2023-05-11T07:19:11.111Z,26.00
2023-05-11T07:20:14.809Z,25.54
2023-05-11T07:21:17.631Z,24.29
2023-05-11T07:22:24.456Z,23.36
2023-05-11T07:23:27.751Z,23.05
2023-05-11T07:24:30.108Z,23.40
2023-05-11T07:25:35.512Z,25.49
2023-05-11T07:26:38.161Z,26.62
2023-05-11T07:27:41.494Z,27.69
2023-05-11T07:28:44.753Z,28.78
2023-05-11T07:29:48.485Z,29.94
2023-05-11T07:30:50.977Z,29.46
2023-05-11T07:31:54.543Z,28.96
2023-05-11T07:32:58.291Z,28.88
2023-05-11T07:34:02.883Z,28.73
2023-05-11T07:35:08.195Z,28.28
2023-05-11T07:36:10.963Z,28.57
2023-05-11T07:37:15.613Z,29.04
2023-05-11T07:38:19.745Z,28.68
2023-05-11T07:39:23.351Z,28.29
2023-05-11T07:40:25.916Z,28.37
2023-05-11T07:41:29.841Z,28.26
2023-05-11T07:42:32.090Z,28.48
2023-05-11T07:43:36.537Z,28.58
2023-05-11T07:44:39.720Z,28.95
2023-05-11T07:45:43.230Z,28.18
2023-05-11T07:46:47.862Z,28.29
2023-05-11T07:47:52.589Z,28.43
2023-05-11T07:49:11.388Z,28.19
2023-05-11T07:50:01.208Z,28.85
2023-05-11T07:51:03.998Z,29.14
2023-05-11T07:52:08.642Z,29.69
2023-05-11T07:53:11.002Z,29.57
2023-05-11T07:54:15.557Z,29.52
2023-05-11T07:55:21.813Z,28.41
2023-05-11T07:56:26.237Z,27.53
2023-05-11T07:57:29.303Z,26.75
2023-05-11T07:58:33.113Z,26.61
2023-05-11T07:59:37.786Z,26.30
2023-05-11T08:00:41.417Z,26.59
2023-05-11T08:01:44.703Z,26.13
2023-05-11T08:02:51.705Z,26.54
2023-05-11T08:03:55.247Z,26.67
2023-05-11T08:04:57.892Z,27.13
2023-05-11T08:06:02.014Z,25.83
2023-05-11T08:07:05.608Z,23.59
2023-05-11T08:08:08.323Z,22.68
2023-05-11T08:09:11.561Z,22.30
2023-05-11T08:10:18.633Z,21.60
2023-05-11T08:11:22.306Z,22.39
2023-05-11T08:12:25.893Z,22.05
2023-05-11T08:13:29.086Z,21.45
2023-05-11T08:14:33.128Z,21.57
2023-05-11T08:15:38.723Z,21.73
2023-05-11T08:16:42.337Z,21.71
2023-05-11T08:17:47.106Z,21.34
2023-05-11T08:18:50.844Z,21.42
2023-05-11T08:19:53.670Z,21.67
2023-05-11T08:20:57.065Z,21.76
2023-05-11T08:22:02.559Z,21.87
2023-05-11T08:23:06.066Z,21.26
2023-05-11T08:24:12.391Z,21.15
2023-05-11T08:25:14.654Z,20.82
2023-05-11T08:26:18.255Z,21.08
2023-05-11T08:27:21.329Z,21.53
2023-05-11T08:28:24.850Z,21.57
2023-05-11T08:29:28.028Z,21.54
2023-05-11T08:30:31.434Z,21.90
2023-05-11T08:31:34.151Z,21.36
2023-05-11T08:33:49.142Z,21.50
2023-05-11T08:34:53.385Z,21.71
2023-05-11T08:35:58.149Z,22.00
2023-05-11T08:37:04.801Z,21.34
2023-05-11T08:38:08.496Z,21.68
2023-05-11T08:39:11.163Z,21.53
2023-05-11T08:40:16.034Z,21.06
2023-05-11T08:41:20.625Z,21.05
2023-05-11T08:42:25.346Z,21.11
2023-05-11T08:43:29.154Z,21.55
2023-05-11T08:44:34.133Z,21.62
2023-05-11T08:45:40.437Z,21.86
2023-05-11T08:46:46.681Z,21.42
2023-05-11T08:47:50.524Z,21.11
2023-05-11T08:48:55.347Z,21.17
2023-05-11T08:49:59.169Z,21.53
2023-05-11T08:51:07.078Z,21.94
2023-05-11T08:52:12.652Z,22.24
2023-05-11T08:53:16.167Z,21.75
2023-05-11T08:54:18.623Z,21.90
2023-05-11T08:55:24.116Z,21.89
2023-05-11T08:56:32.313Z,22.58
2023-05-11T08:57:35.940Z,22.42
2023-05-11T08:58:41.573Z,22.41
2023-05-11T08:59:47.528Z,22.41
2023-05-11T09:00:51.240Z,22.70
2023-05-11T09:02:57.343Z,23.11
2023-05-11T09:04:03.119Z,23.36
2023-05-11T09:05:07.455Z,23.39
2023-05-11T09:06:10.539Z,23.31
2023-05-11T09:07:15.626Z,23.48
2023-05-11T09:08:19.644Z,23.92
2023-05-11T09:09:22.635Z,23.83
2023-05-11T09:10:26.452Z,23.65
2023-05-11T09:11:30.361Z,23.60
2023-05-11T09:12:35.233Z,23.63
2023-05-11T09:13:38.834Z,23.58
2023-05-11T09:14:45.321Z,23.32
2023-05-11T09:15:48.265Z,23.36
2023-05-11T09:16:55.236Z,22.84
2023-05-11T09:17:59.257Z,22.33
2023-05-11T09:19:02.470Z,22.38
2023-05-11T09:20:09.099Z,22.54
2023-05-11T09:21:13.234Z,22.45
2023-05-11T09:22:17.955Z,22.49
2023-05-11T09:23:29.186Z,22.59
2023-05-11T09:24:31.960Z,22.84
2023-05-11T09:25:35.675Z,22.78
2023-05-11T09:26:40.581Z,23.03
2023-05-11T09:27:44.878Z,22.86
2023-05-11T09:29:02.493Z,22.82
2023-05-11T09:29:57.321Z,22.66
2023-05-11T09:31:01.817Z,22.55
2023-05-11T09:32:05.068Z,22.11
2023-05-11T09:33:12.867Z,22.30
2023-05-11T09:34:18.031Z,22.52
2023-05-11T09:35:26.259Z,22.62
2023-05-11T09:36:30.263Z,22.93
2023-05-11T09:37:34.086Z,24.06
2023-05-11T09:38:39.465Z,24.67
2023-05-11T09:40:52.834Z,24.18
2023-05-11T09:42:14.111Z,24.35
2023-05-11T09:43:22.103Z,23.85
2023-05-11T09:44:27.700Z,23.35
2023-05-11T09:45:37.982Z,23.35
2023-05-11T09:46:43.279Z,23.57
2023-05-11T09:47:49.167Z,23.71
2023-05-11T09:48:57.609Z,23.54
2023-05-11T09:50:00.991Z,23.42
2023-05-11T09:51:05.457Z,23.09
2023-05-11T09:52:13.216Z,22.86
2023-05-11T09:53:17.565Z,22.74
2023-05-11T09:54:22.542Z,22.98
2023-05-11T09:55:26.561Z,23.36
2023-05-11T09:56:49.294Z,23.42
2023-05-11T09:57:58.886Z,23.71
2023-05-11T09:59:03.595Z,24.07
2023-05-11T10:00:10.973Z,23.73
2023-05-11T10:01:15.461Z,23.53
2023-05-11T10:02:19.372Z,23.84
2023-05-11T10:03:22.544Z,23.81
2023-05-11T10:04:31.261Z,24.23
2023-05-11T10:05:38.690Z,24.46
2023-05-11T10:06:46.486Z,24.36
2023-05-11T10:07:50.963Z,24.00
2023-05-11T10:08:54.774Z,23.38
2023-05-11T10:09:59.231Z,23.50
2023-05-11T10:11:04.836Z,23.28
2023-05-11T10:12:09.091Z,23.60
2023-05-11T10:13:14.503Z,22.98
2023-05-11T10:14:19.609Z,21.78
2023-05-11T10:15:27.287Z,21.55
2023-05-11T10:16:31.661Z,21.81
2023-05-11T10:17:36.677Z,21.99
2023-05-11T10:18:42.287Z,22.73
2023-05-11T10:19:46.964Z,22.98
2023-05-11T10:20:50.403Z,22.98
2023-05-11T10:21:55.645Z,22.56
2023-05-11T10:22:59.258Z,22.68
2023-05-11T10:24:06.326Z,22.99
2023-05-11T10:25:12.298Z,23.15
2023-05-11T10:26:16.975Z,22.93
2023-05-11T10:27:21.432Z,23.04
2023-05-11T10:28:25.321Z,23.77
2023-05-11T10:29:29.085Z,23.96
2023-05-11T10:30:33.093Z,23.48
2023-05-11T10:31:37.848Z,23.04
2023-05-11T10:32:41.580Z,22.71
2023-05-11T10:33:43.901Z,22.61
2023-05-11T10:34:47.628Z,23.01
2023-05-11T10:35:54.022Z,22.87
2023-05-11T10:36:57.559Z,22.97
2023-05-11T10:38:01.690Z,23.26
2023-05-11T10:39:05.551Z,22.72
2023-05-11T10:40:09.917Z,22.65
2023-05-11T10:41:29.961Z,22.43
2023-05-11T10:42:50.704Z,22.44
2023-05-11T10:43:56.189Z,22.08
2023-05-11T10:45:08.528Z,22.37
2023-05-11T10:46:30.528Z,22.34
2023-05-11T10:47:54.206Z,22.05
2023-05-11T10:49:05.024Z,22.49
2023-05-11T10:50:16.507Z,21.87
2023-05-11T10:51:31.273Z,22.19
2023-05-11T10:52:50.038Z,21.98
2023-05-11T10:53:56.458Z,22.40
2023-05-11T10:55:06.361Z,22.19
2023-05-11T10:56:19.016Z,21.89
2023-05-11T10:57:23.380Z,21.58
2023-05-11T10:58:27.455Z,21.60
2023-05-11T10:59:50.720Z,21.74
2023-05-11T11:01:03.296Z,21.53
2023-05-11T11:02:07.181Z,21.12
2023-05-11T11:03:11.829Z,21.41
2023-05-11T11:04:18.036Z,21.55
2023-05-11T11:05:25.064Z,21.34
2023-05-11T11:06:29.016Z,21.30
2023-05-11T11:07:32.904Z,20.91
2023-05-11T11:08:38.007Z,20.50
2023-05-11T11:09:51.441Z,20.59
2023-05-11T11:10:56.704Z,21.12
2023-05-11T11:12:04.612Z,21.50
2023-05-11T11:13:09.484Z,21.53
2023-05-11T11:14:12.906Z,21.16
2023-05-11T11:15:16.808Z,21.10
2023-05-11T11:16:21.257Z,21.18
2023-05-11T11:17:32.205Z,21.46
2023-05-11T11:18:35.843Z,21.41
2023-05-11T11:19:39.593Z,21.59
2023-05-11T11:20:46.476Z,21.66
2023-05-11T11:21:49.938Z,21.18
2023-05-11T11:22:53.542Z,21.10
2023-05-11T11:23:57.165Z,21.29
2023-05-11T11:25:00.642Z,21.44
2023-05-11T11:26:03.636Z,21.80
2023-05-11T11:27:11.338Z,21.71
2023-05-11T11:28:14.831Z,21.99
2023-05-11T11:29:21.516Z,22.16
2023-05-11T11:30:29.860Z,22.20
2023-05-11T11:31:33.700Z,21.85
2023-05-11T11:32:38.514Z,21.95
2023-05-11T11:33:44.372Z,21.81
2023-05-11T11:34:48.722Z,21.79
2023-05-11T11:35:52.945Z,21.99
2023-05-11T11:36:58.331Z,22.25
2023-05-11T11:38:04.404Z,22.21
2023-05-11T11:39:08.982Z,21.67
2023-05-11T11:40:15.694Z,21.64
2023-05-11T11:41:31.049Z,21.50
2023-05-11T11:42:35.584Z,21.71
2023-05-11T11:43:47.709Z,21.72
2023-05-11T11:44:50.897Z,21.40
2023-05-11T11:45:55.723Z,20.90
2023-05-11T11:47:12.703Z,21.10
2023-05-11T11:48:17.248Z,21.32
2023-05-11T11:49:21.278Z,21.24
2023-05-11T11:50:25.337Z,21.00
2023-05-11T11:51:30.577Z,20.85
2023-05-11T11:52:35.307Z,20.99
2023-05-11T11:53:44.994Z,20.88
2023-05-11T11:54:50.601Z,21.32
2023-05-11T11:55:54.108Z,21.75
2023-05-11T11:56:57.927Z,21.65
2023-05-11T11:58:00.302Z,21.46
2023-05-11T11:59:04.924Z,21.44
2023-05-11T12:00:12.336Z,21.54
2023-05-11T12:01:17.909Z,21.48
2023-05-11T12:02:22.131Z,21.66
2023-05-11T12:03:25.277Z,21.83
2023-05-11T12:04:30.627Z,21.94
2023-05-11T12:05:36.193Z,21.66
2023-05-11T12:06:40.225Z,22.02
2023-05-11T12:07:45.091Z,22.03
2023-05-11T12:08:52.040Z,22.58
2023-05-11T12:09:56.527Z,22.48
2023-05-11T12:11:01.754Z,22.43
2023-05-11T12:12:06.186Z,22.44
2023-05-11T12:13:13.508Z,22.53
2023-05-11T12:14:17.397Z,22.86
2023-05-11T12:15:27.273Z,22.94
2023-05-11T12:16:31.831Z,22.52
2023-05-11T12:17:37.533Z,22.64
2023-05-11T12:18:42.065Z,22.41
2023-05-11T12:19:47.929Z,22.08
2023-05-11T12:20:51.377Z,21.87
2023-05-11T12:21:54.978Z,21.91
2023-05-11T12:22:58.114Z,21.78
2023-05-11T12:24:06.490Z,21.85
2023-05-11T12:25:11.915Z,21.67
2023-05-11T12:26:18.245Z,21.19
2023-05-11T12:27:23.834Z,20.90
2023-05-11T12:28:28.027Z,21.08
2023-05-11T12:29:33.423Z,20.91
2023-05-11T12:30:36.696Z,20.68
2023-05-11T12:31:42.431Z,20.42
2023-05-11T12:32:46.068Z,20.47
2023-05-11T12:33:50.778Z,20.53
2023-05-11T12:35:02.073Z,20.85
2023-05-11T12:36:07.067Z,20.99
2023-05-11T12:37:10.600Z,21.02
2023-05-11T12:38:14.093Z,20.65
2023-05-11T12:39:19.329Z,20.50
2023-05-11T12:40:25.115Z,20.62
2023-05-11T12:41:28.684Z,20.78
2023-05-11T12:42:34.552Z,20.79
2023-05-11T12:43:37.799Z,20.69
2023-05-11T12:44:40.230Z,20.73
2023-05-11T12:45:43.850Z,20.98
2023-05-11T12:47:00.719Z,21.20
2023-05-11T12:48:05.331Z,21.47
2023-05-11T12:49:09.919Z,21.57
2023-05-11T12:50:12.922Z,21.18
2023-05-11T12:51:35.111Z,21.36
2023-05-11T12:52:38.098Z,21.45
2023-05-11T12:53:43.159Z,21.58
2023-05-11T12:54:54.812Z,21.44
2023-05-11T12:56:00.028Z,21.11
2023-05-11T12:57:04.706Z,21.04
2023-05-11T12:58:15.142Z,20.99
2023-05-11T12:59:25.028Z,21.20
2023-05-11T13:00:29.577Z,21.29
2023-05-11T13:01:33.130Z,21.20
2023-05-11T13:02:38.770Z,21.00
2023-05-11T13:03:46.701Z,21.03
2023-05-11T13:04:50.397Z,21.15
2023-05-11T13:05:55.352Z,21.21
2023-05-11T13:07:00.123Z,21.27
2023-05-11T13:08:04.758Z,21.52
2023-05-11T13:09:08.376Z,21.63
2023-05-11T13:10:15.336Z,21.83
2023-05-11T13:11:22.876Z,21.63
2023-05-11T13:12:29.594Z,21.74
2023-05-11T13:13:33.583Z,21.57
2023-05-11T13:14:37.229Z,21.87
2023-05-11T13:15:53.957Z,22.04
2023-05-11T13:16:57.774Z,22.05
2023-05-11T13:18:02.354Z,21.73
2023-05-11T13:19:07.231Z,21.52
2023-05-11T13:20:23.409Z,21.36
2023-05-11T13:21:27.404Z,21.43
2023-05-11T13:22:31.745Z,21.48
2023-05-11T13:23:35.080Z,21.35
2023-05-11T13:24:38.378Z,21.58
2023-05-11T13:25:50.359Z,21.76
2023-05-11T13:26:58.458Z,21.87
2023-05-11T13:28:02.787Z,21.97
2023-05-11T13:29:11.053Z,22.05
2023-05-11T13:30:12.434Z,22.10
2023-05-11T13:31:18.861Z,22.05
2023-05-11T13:32:21.373Z,21.90
2023-05-11T13:33:25.125Z,21.49
2023-05-11T13:34:27.890Z,21.26
2023-05-11T13:35:31.502Z,21.33
2023-05-11T13:36:34.675Z,21.21
2023-05-11T13:37:38.323Z,21.49
2023-05-11T13:38:41.761Z,21.34
2023-05-11T13:39:44.950Z,21.43
2023-05-11T13:40:48.425Z,21.41
2023-05-11T13:41:55.762Z,21.63
2023-05-11T13:42:58.858Z,21.46
2023-05-11T13:44:03.426Z,21.74
2023-05-11T13:45:08.577Z,21.87
2023-05-11T13:46:13.390Z,21.74
2023-05-11T13:48:25.619Z,21.33
2023-05-11T13:49:29.288Z,20.98
2023-05-11T13:50:32.504Z,21.02
2023-05-11T13:51:36.215Z,20.89
2023-05-11T13:52:41.064Z,20.76
2023-05-11T13:53:44.345Z,20.90
2023-05-11T13:54:47.651Z,20.89
2023-05-11T13:55:50.004Z,20.79
2023-05-11T13:56:53.517Z,20.95
2023-05-11T13:57:57.579Z,21.00
2023-05-11T13:59:00.931Z,21.03
2023-05-11T14:00:05.000Z,20.97
2023-05-11T14:01:10.388Z,20.98
2023-05-11T14:02:14.509Z,20.66
2023-05-11T14:03:18.093Z,20.33
2023-05-11T14:04:24.760Z,20.26
2023-05-11T14:05:31.054Z,20.31
2023-05-11T14:06:34.142Z,20.07
2023-05-11T14:07:46.365Z,19.96
2023-05-11T14:08:43.911Z,19.92
2023-05-11T14:09:50.156Z,19.88
2023-05-11T14:10:54.370Z,19.82
2023-05-11T14:11:59.704Z,20.08